sensor_id;sensor_type;location;lat;lon;timestamp;P1;durP1;ratioP1;P2;durP2;ratioP2
9007;SDS011;62813;51.424;6.762;2023-08-01T00:00:43;1.23;;;1.07;;
9007;SDS011;62813;51.424;6.762;2023-08-01T00:03:09;1.87;;;1.00;;
9007;SDS011;62813;51.424;6.762;2023-08-01T00:05:36;1.97;;;1.00;;
9007;SDS011;62813;51.424;6.762;2023-08-01T00:08:05;1.40;;;1.20;;
9007;SDS011;62813;51.424;6.762;2023-08-01T00:10:31;2.03;;;1.00;;
9007;SDS011;62813;51.424;6.762;2023-08-01T00:12:58;3.03;;;0.83;;
9007;SDS011;62813;51.424;6.762;2023-08-01T00:15:25;1.00;;;0.90;;
9007;SDS011;62813;51.424;6.762;2023-08-01T00:17:51;3.00;;;1.00;;
9007;SDS011;62813;51.424;6.762;2023-08-01T00:20:18;1.80;;;1.10;;
9007;SDS011;62813;51.424;6.762;2023-08-01T00:22:45;0.90;;;0.90;;
9007;SDS011;62813;51.424;6.762;2023-08-01T00:25:11;2.70;;;0.80;;
9007;SDS011;62813;51.424;6.762;2023-08-01T00:27:38;1.63;;;0.90;;
9007;SDS011;62813;51.424;6.762;2023-08-01T00:30:06;1.40;;;1.00;;
9007;SDS011;62813;51.424;6.762;2023-08-01T00:32:34;0.90;;;0.80;;
9007;SDS011;62813;51.424;6.762;2023-08-01T00:35:01;1.50;;;0.90;;
9007;SDS011;62813;51.424;6.762;2023-08-01T00:37:29;1.10;;;1.00;;
9007;SDS011;62813;51.424;6.762;2023-08-01T00:39:56;0.90;;;0.80;;
9007;SDS011;62813;51.424;6.762;2023-08-01T00:42:22;0.83;;;0.80;;
9007;SDS011;62813;51.424;6.762;2023-08-01T00:44:49;2.40;;;0.97;;
9007;SDS011;62813;51.424;6.762;2023-08-01T00:47:17;1.30;;;1.20;;
9007;SDS011;62813;51.424;6.762;2023-08-01T00:49:45;1.47;;;0.90;;
9007;SDS011;62813;51.424;6.762;2023-08-01T00:52:12;1.20;;;1.10;;
9007;SDS011;62813;51.424;6.762;2023-08-01T00:54:39;1.50;;;1.13;;
9007;SDS011;62813;51.424;6.762;2023-08-01T00:57:06;1.70;;;1.10;;
9007;SDS011;62813;51.424;6.762;2023-08-01T00:59:33;1.27;;;1.17;;
9007;SDS011;62813;51.424;6.762;2023-08-01T01:02:01;2.80;;;1.10;;
9007;SDS011;62813;51.424;6.762;2023-08-01T01:04:28;1.87;;;1.37;;
9007;SDS011;62813;51.424;6.762;2023-08-01T01:07:02;1.57;;;1.20;;
9007;SDS011;62813;51.424;6.762;2023-08-01T01:09:32;2.43;;;0.83;;
9007;SDS011;62813;51.424;6.762;2023-08-01T01:11:59;1.00;;;0.90;;
9007;SDS011;62813;51.424;6.762;2023-08-01T01:14:26;1.30;;;1.20;;
9007;SDS011;62813;51.424;6.762;2023-08-01T01:16:54;2.53;;;1.37;;
9007;SDS011;62813;51.424;6.762;2023-08-01T01:19:21;1.30;;;1.10;;
9007;SDS011;62813;51.424;6.762;2023-08-01T01:21:48;3.13;;;1.53;;
9007;SDS011;62813;51.424;6.762;2023-08-01T01:24:16;1.60;;;1.20;;
9007;SDS011;62813;51.424;6.762;2023-08-01T01:26:45;1.47;;;1.30;;
9007;SDS011;62813;51.424;6.762;2023-08-01T01:29:13;4.10;;;1.33;;
9007;SDS011;62813;51.424;6.762;2023-08-01T01:31:41;3.23;;;1.33;;
9007;SDS011;62813;51.424;6.762;2023-08-01T01:34:09;3.10;;;1.40;;
9007;SDS011;62813;51.424;6.762;2023-08-01T01:36:36;3.80;;;1.73;;
9007;SDS011;62813;51.424;6.762;2023-08-01T01:39:03;1.60;;;1.50;;
9007;SDS011;62813;51.424;6.762;2023-08-01T01:41:30;1.70;;;1.60;;
9007;SDS011;62813;51.424;6.762;2023-08-01T01:43:57;2.13;;;1.63;;
9007;SDS011;62813;51.424;6.762;2023-08-01T01:46:24;1.77;;;1.57;;
9007;SDS011;62813;51.424;6.762;2023-08-01T01:48:50;1.87;;;1.70;;
9007;SDS011;62813;51.424;6.762;2023-08-01T01:51:17;1.97;;;1.70;;
9007;SDS011;62813;51.424;6.762;2023-08-01T01:53:44;1.80;;;1.60;;
9007;SDS011;62813;51.424;6.762;2023-08-01T01:56:10;4.20;;;1.77;;
9007;SDS011;62813;51.424;6.762;2023-08-01T01:58:37;2.33;;;1.80;;
9007;SDS011;62813;51.424;6.762;2023-08-01T02:01:03;1.73;;;1.50;;
9007;SDS011;62813;51.424;6.762;2023-08-01T02:03:30;1.87;;;1.50;;
9007;SDS011;62813;51.424;6.762;2023-08-01T02:05:57;2.27;;;1.80;;
9007;SDS011;62813;51.424;6.762;2023-08-01T02:08:24;2.60;;;2.17;;
9007;SDS011;62813;51.424;6.762;2023-08-01T02:10:50;2.10;;;1.80;;
9007;SDS011;62813;51.424;6.762;2023-08-01T02:13:17;2.20;;;2.00;;
9007;SDS011;62813;51.424;6.762;2023-08-01T02:15:44;3.20;;;2.43;;
9007;SDS011;62813;51.424;6.762;2023-08-01T02:18:10;3.43;;;2.50;;
9007;SDS011;62813;51.424;6.762;2023-08-01T02:20:37;3.33;;;2.70;;
9007;SDS011;62813;51.424;6.762;2023-08-01T02:23:04;2.80;;;2.50;;
9007;SDS011;62813;51.424;6.762;2023-08-01T02:25:31;3.70;;;3.10;;
9007;SDS011;62813;51.424;6.762;2023-08-01T02:27:57;4.27;;;2.67;;
9007;SDS011;62813;51.424;6.762;2023-08-01T02:30:24;2.87;;;2.50;;
9007;SDS011;62813;51.424;6.762;2023-08-01T02:32:51;3.50;;;3.00;;
9007;SDS011;62813;51.424;6.762;2023-08-01T02:35:18;3.50;;;3.13;;
9007;SDS011;62813;51.424;6.762;2023-08-01T02:37:44;3.63;;;3.33;;
9007;SDS011;62813;51.424;6.762;2023-08-01T02:40:11;4.40;;;3.37;;
9007;SDS011;62813;51.424;6.762;2023-08-01T02:42:38;7.50;;;4.40;;
9007;SDS011;62813;51.424;6.762;2023-08-01T02:45:05;7.30;;;4.03;;
9007;SDS011;62813;51.424;6.762;2023-08-01T02:47:32;5.23;;;4.53;;
9007;SDS011;62813;51.424;6.762;2023-08-01T02:49:59;6.67;;;5.40;;
9007;SDS011;62813;51.424;6.762;2023-08-01T02:52:25;6.90;;;5.07;;
9007;SDS011;62813;51.424;6.762;2023-08-01T02:54:52;6.63;;;5.93;;
9007;SDS011;62813;51.424;6.762;2023-08-01T02:57:19;7.90;;;6.83;;
9007;SDS011;62813;51.424;6.762;2023-08-01T02:59:46;8.10;;;6.73;;
9007;SDS011;62813;51.424;6.762;2023-08-01T03:02:13;8.17;;;6.93;;
9007;SDS011;62813;51.424;6.762;2023-08-01T03:04:40;10.93;;;7.50;;
9007;SDS011;62813;51.424;6.762;2023-08-01T03:07:12;9.57;;;7.60;;
9007;SDS011;62813;51.424;6.762;2023-08-01T03:09:39;10.80;;;7.87;;
9007;SDS011;62813;51.424;6.762;2023-08-01T03:12:05;11.20;;;7.47;;
9007;SDS011;62813;51.424;6.762;2023-08-01T03:14:33;11.90;;;7.23;;
9007;SDS011;62813;51.424;6.762;2023-08-01T03:16:59;11.47;;;7.93;;
9007;SDS011;62813;51.424;6.762;2023-08-01T03:19:26;8.17;;;7.43;;
9007;SDS011;62813;51.424;6.762;2023-08-01T03:21:53;8.63;;;7.60;;
9007;SDS011;62813;51.424;6.762;2023-08-01T03:24:19;11.33;;;7.70;;
9007;SDS011;62813;51.424;6.762;2023-08-01T03:26:46;10.10;;;7.70;;
9007;SDS011;62813;51.424;6.762;2023-08-01T03:29:13;10.47;;;7.30;;
9007;SDS011;62813;51.424;6.762;2023-08-01T03:31:39;9.27;;;7.60;;
9007;SDS011;62813;51.424;6.762;2023-08-01T03:34:06;14.17;;;8.00;;
9007;SDS011;62813;51.424;6.762;2023-08-01T03:36:35;11.93;;;7.40;;
9007;SDS011;62813;51.424;6.762;2023-08-01T03:39:02;12.27;;;7.17;;
9007;SDS011;62813;51.424;6.762;2023-08-01T03:41:31;10.57;;;7.57;;
9007;SDS011;62813;51.424;6.762;2023-08-01T03:43:59;12.07;;;8.10;;
9007;SDS011;62813;51.424;6.762;2023-08-01T03:46:25;10.60;;;7.40;;
9007;SDS011;62813;51.424;6.762;2023-08-01T03:48:52;13.77;;;8.07;;
9007;SDS011;62813;51.424;6.762;2023-08-01T03:51:19;10.37;;;7.10;;
9007;SDS011;62813;51.424;6.762;2023-08-01T03:53:47;10.27;;;7.13;;
9007;SDS011;62813;51.424;6.762;2023-08-01T03:56:24;12.03;;;7.37;;
9007;SDS011;62813;51.424;6.762;2023-08-01T03:58:51;12.10;;;7.60;;
9007;SDS011;62813;51.424;6.762;2023-08-01T04:01:20;10.00;;;7.60;;
9007;SDS011;62813;51.424;6.762;2023-08-01T04:03:47;14.13;;;8.33;;
9007;SDS011;62813;51.424;6.762;2023-08-01T04:06:14;14.03;;;9.00;;
9007;SDS011;62813;51.424;6.762;2023-08-01T04:08:41;14.40;;;8.30;;
9007;SDS011;62813;51.424;6.762;2023-08-01T04:11:08;13.53;;;8.53;;
9007;SDS011;62813;51.424;6.762;2023-08-01T04:13:35;12.00;;;7.40;;
9007;SDS011;62813;51.424;6.762;2023-08-01T04:16:01;10.80;;;8.17;;
9007;SDS011;62813;51.424;6.762;2023-08-01T04:18:28;14.60;;;7.77;;
9007;SDS011;62813;51.424;6.762;2023-08-01T04:20:55;9.80;;;8.00;;
9007;SDS011;62813;51.424;6.762;2023-08-01T04:23:21;15.33;;;9.60;;
9007;SDS011;62813;51.424;6.762;2023-08-01T04:25:48;17.93;;;8.93;;
9007;SDS011;62813;51.424;6.762;2023-08-01T04:28:15;17.03;;;9.77;;
9007;SDS011;62813;51.424;6.762;2023-08-01T04:30:42;15.30;;;9.13;;
9007;SDS011;62813;51.424;6.762;2023-08-01T04:33:14;10.80;;;8.67;;
9007;SDS011;62813;51.424;6.762;2023-08-01T04:35:41;12.10;;;8.87;;
9007;SDS011;62813;51.424;6.762;2023-08-01T04:38:08;12.40;;;9.50;;
9007;SDS011;62813;51.424;6.762;2023-08-01T04:40:35;12.70;;;9.13;;
9007;SDS011;62813;51.424;6.762;2023-08-01T04:43:02;14.77;;;9.93;;
9007;SDS011;62813;51.424;6.762;2023-08-01T04:45:29;11.13;;;9.73;;
9007;SDS011;62813;51.424;6.762;2023-08-01T04:47:56;12.77;;;8.47;;
9007;SDS011;62813;51.424;6.762;2023-08-01T04:50:22;13.93;;;8.80;;
9007;SDS011;62813;51.424;6.762;2023-08-01T04:52:50;10.87;;;9.20;;
9007;SDS011;62813;51.424;6.762;2023-08-01T04:55:17;12.90;;;10.17;;
9007;SDS011;62813;51.424;6.762;2023-08-01T04:57:44;11.17;;;9.33;;
9007;SDS011;62813;51.424;6.762;2023-08-01T05:00:11;11.00;;;9.60;;
9007;SDS011;62813;51.424;6.762;2023-08-01T05:02:38;19.17;;;10.73;;
9007;SDS011;62813;51.424;6.762;2023-08-01T05:05:05;17.63;;;10.27;;
9007;SDS011;62813;51.424;6.762;2023-08-01T05:07:32;13.93;;;10.37;;
9007;SDS011;62813;51.424;6.762;2023-08-01T05:09:59;19.60;;;12.97;;
9007;SDS011;62813;51.424;6.762;2023-08-01T05:12:26;15.30;;;11.87;;
9007;SDS011;62813;51.424;6.762;2023-08-01T05:14:53;15.13;;;11.87;;
9007;SDS011;62813;51.424;6.762;2023-08-01T05:17:19;22.17;;;12.53;;
9007;SDS011;62813;51.424;6.762;2023-08-01T05:19:46;14.23;;;12.03;;
9007;SDS011;62813;51.424;6.762;2023-08-01T05:22:13;17.33;;;12.87;;
9007;SDS011;62813;51.424;6.762;2023-08-01T05:24:40;14.03;;;12.07;;
9007;SDS011;62813;51.424;6.762;2023-08-01T05:27:07;17.17;;;12.20;;
9007;SDS011;62813;51.424;6.762;2023-08-01T05:29:33;16.10;;;11.90;;
9007;SDS011;62813;51.424;6.762;2023-08-01T05:32:00;17.17;;;12.37;;
9007;SDS011;62813;51.424;6.762;2023-08-01T05:34:27;15.13;;;11.47;;
9007;SDS011;62813;51.424;6.762;2023-08-01T05:36:53;17.43;;;12.30;;
9007;SDS011;62813;51.424;6.762;2023-08-01T05:39:20;14.60;;;11.73;;
9007;SDS011;62813;51.424;6.762;2023-08-01T05:41:47;15.13;;;12.03;;
9007;SDS011;62813;51.424;6.762;2023-08-01T05:44:14;18.13;;;11.90;;
9007;SDS011;62813;51.424;6.762;2023-08-01T05:46:41;21.83;;;12.80;;
9007;SDS011;62813;51.424;6.762;2023-08-01T05:49:08;16.27;;;12.40;;
9007;SDS011;62813;51.424;6.762;2023-08-01T05:51:35;13.33;;;11.80;;
9007;SDS011;62813;51.424;6.762;2023-08-01T05:54:02;14.63;;;11.87;;
9007;SDS011;62813;51.424;6.762;2023-08-01T05:56:29;18.37;;;12.97;;
9007;SDS011;62813;51.424;6.762;2023-08-01T05:58:56;16.30;;;11.93;;
9007;SDS011;62813;51.424;6.762;2023-08-01T06:01:23;21.40;;;12.97;;
9007;SDS011;62813;51.424;6.762;2023-08-01T06:03:50;18.20;;;12.07;;
9007;SDS011;62813;51.424;6.762;2023-08-01T06:06:16;17.00;;;12.97;;
9007;SDS011;62813;51.424;6.762;2023-08-01T06:08:43;14.77;;;11.90;;
9007;SDS011;62813;51.424;6.762;2023-08-01T06:11:10;19.27;;;13.10;;
9007;SDS011;62813;51.424;6.762;2023-08-01T06:13:37;13.73;;;11.43;;
9007;SDS011;62813;51.424;6.762;2023-08-01T06:16:03;19.37;;;11.93;;
9007;SDS011;62813;51.424;6.762;2023-08-01T06:18:30;15.10;;;11.93;;
9007;SDS011;62813;51.424;6.762;2023-08-01T06:20:57;17.10;;;11.10;;
9007;SDS011;62813;51.424;6.762;2023-08-01T06:23:26;17.00;;;11.70;;
9007;SDS011;62813;51.424;6.762;2023-08-01T06:25:53;19.37;;;12.33;;
9007;SDS011;62813;51.424;6.762;2023-08-01T06:28:20;17.77;;;13.53;;
9007;SDS011;62813;51.424;6.762;2023-08-01T06:30:47;19.43;;;12.53;;
9007;SDS011;62813;51.424;6.762;2023-08-01T06:33:13;15.63;;;12.73;;
9007;SDS011;62813;51.424;6.762;2023-08-01T06:35:40;15.83;;;10.53;;
9007;SDS011;62813;51.424;6.762;2023-08-01T06:38:07;15.10;;;11.50;;
9007;SDS011;62813;51.424;6.762;2023-08-01T06:40:34;15.20;;;10.63;;
9007;SDS011;62813;51.424;6.762;2023-08-01T06:43:00;14.47;;;9.93;;
9007;SDS011;62813;51.424;6.762;2023-08-01T06:45:27;14.13;;;9.90;;
9007;SDS011;62813;51.424;6.762;2023-08-01T06:47:54;12.63;;;9.83;;
9007;SDS011;62813;51.424;6.762;2023-08-01T06:50:21;14.73;;;10.20;;
9007;SDS011;62813;51.424;6.762;2023-08-01T06:52:47;15.20;;;9.30;;
9007;SDS011;62813;51.424;6.762;2023-08-01T06:55:14;15.03;;;9.70;;
9007;SDS011;62813;51.424;6.762;2023-08-01T06:57:41;10.87;;;8.27;;
9007;SDS011;62813;51.424;6.762;2023-08-01T07:00:08;12.67;;;8.37;;
9007;SDS011;62813;51.424;6.762;2023-08-01T07:02:35;13.20;;;8.37;;
9007;SDS011;62813;51.424;6.762;2023-08-01T07:05:02;14.43;;;8.37;;
9007;SDS011;62813;51.424;6.762;2023-08-01T07:07:29;13.70;;;8.70;;
9007;SDS011;62813;51.424;6.762;2023-08-01T07:09:55;13.70;;;8.27;;
9007;SDS011;62813;51.424;6.762;2023-08-01T07:12:22;14.83;;;8.10;;
9007;SDS011;62813;51.424;6.762;2023-08-01T07:14:49;14.70;;;7.90;;
9007;SDS011;62813;51.424;6.762;2023-08-01T07:17:16;11.93;;;7.67;;
9007;SDS011;62813;51.424;6.762;2023-08-01T07:19:42;11.07;;;7.70;;
9007;SDS011;62813;51.424;6.762;2023-08-01T07:22:09;15.33;;;7.87;;
9007;SDS011;62813;51.424;6.762;2023-08-01T07:24:36;13.47;;;8.00;;
9007;SDS011;62813;51.424;6.762;2023-08-01T07:27:03;13.07;;;7.70;;
9007;SDS011;62813;51.424;6.762;2023-08-01T07:29:30;13.43;;;7.80;;
9007;SDS011;62813;51.424;6.762;2023-08-01T07:31:57;14.07;;;7.87;;
9007;SDS011;62813;51.424;6.762;2023-08-01T07:34:24;13.43;;;8.00;;
9007;SDS011;62813;51.424;6.762;2023-08-01T07:36:50;16.57;;;8.70;;
9007;SDS011;62813;51.424;6.762;2023-08-01T07:39:17;12.40;;;8.10;;
9007;SDS011;62813;51.424;6.762;2023-08-01T07:41:44;11.77;;;7.53;;
9007;SDS011;62813;51.424;6.762;2023-08-01T07:44:11;12.83;;;7.87;;
9007;SDS011;62813;51.424;6.762;2023-08-01T07:46:37;11.63;;;7.93;;
9007;SDS011;62813;51.424;6.762;2023-08-01T07:49:05;12.90;;;7.70;;
9007;SDS011;62813;51.424;6.762;2023-08-01T07:51:31;15.73;;;7.80;;
9007;SDS011;62813;51.424;6.762;2023-08-01T07:54:00;14.40;;;8.33;;
9007;SDS011;62813;51.424;6.762;2023-08-01T07:56:26;11.63;;;8.37;;
9007;SDS011;62813;51.424;6.762;2023-08-01T07:58:53;11.27;;;7.47;;
9007;SDS011;62813;51.424;6.762;2023-08-01T08:01:20;10.50;;;7.87;;
9007;SDS011;62813;51.424;6.762;2023-08-01T08:03:46;9.03;;;7.47;;
9007;SDS011;62813;51.424;6.762;2023-08-01T08:06:13;15.67;;;8.67;;
9007;SDS011;62813;51.424;6.762;2023-08-01T08:08:40;12.83;;;8.00;;
9007;SDS011;62813;51.424;6.762;2023-08-01T08:11:07;13.07;;;7.60;;
9007;SDS011;62813;51.424;6.762;2023-08-01T08:13:33;10.90;;;7.50;;
9007;SDS011;62813;51.424;6.762;2023-08-01T08:16:00;11.50;;;7.67;;
9007;SDS011;62813;51.424;6.762;2023-08-01T08:18:27;13.37;;;7.70;;
9007;SDS011;62813;51.424;6.762;2023-08-01T08:20:54;11.30;;;7.30;;
9007;SDS011;62813;51.424;6.762;2023-08-01T08:23:20;12.70;;;7.40;;
9007;SDS011;62813;51.424;6.762;2023-08-01T08:25:47;11.53;;;7.60;;
9007;SDS011;62813;51.424;6.762;2023-08-01T08:28:14;13.90;;;8.03;;
9007;SDS011;62813;51.424;6.762;2023-08-01T08:30:41;19.93;;;9.60;;
9007;SDS011;62813;51.424;6.762;2023-08-01T08:33:08;14.90;;;7.40;;
9007;SDS011;62813;51.424;6.762;2023-08-01T08:35:38;13.80;;;7.50;;
9007;SDS011;62813;51.424;6.762;2023-08-01T08:38:05;31.63;;;10.30;;
9007;SDS011;62813;51.424;6.762;2023-08-01T08:40:32;9.73;;;6.67;;
9007;SDS011;62813;51.424;6.762;2023-08-01T08:43:01;10.33;;;7.00;;
9007;SDS011;62813;51.424;6.762;2023-08-01T08:45:31;11.60;;;6.67;;
9007;SDS011;62813;51.424;6.762;2023-08-01T08:48:02;11.83;;;7.80;;
9007;SDS011;62813;51.424;6.762;2023-08-01T08:50:35;12.03;;;7.37;;
9007;SDS011;62813;51.424;6.762;2023-08-01T08:53:02;11.07;;;6.43;;
9007;SDS011;62813;51.424;6.762;2023-08-01T08:55:29;12.67;;;6.90;;
9007;SDS011;62813;51.424;6.762;2023-08-01T08:57:58;12.00;;;6.57;;
9007;SDS011;62813;51.424;6.762;2023-08-01T09:00:26;13.30;;;6.60;;
9007;SDS011;62813;51.424;6.762;2023-08-01T09:02:54;11.50;;;6.73;;
9007;SDS011;62813;51.424;6.762;2023-08-01T09:05:21;11.13;;;6.50;;
9007;SDS011;62813;51.424;6.762;2023-08-01T09:07:55;9.03;;;6.43;;
9007;SDS011;62813;51.424;6.762;2023-08-01T09:10:24;10.40;;;5.90;;
9007;SDS011;62813;51.424;6.762;2023-08-01T09:12:51;11.43;;;6.07;;
9007;SDS011;62813;51.424;6.762;2023-08-01T09:15:19;9.37;;;5.60;;
9007;SDS011;62813;51.424;6.762;2023-08-01T09:17:51;8.83;;;5.47;;
9007;SDS011;62813;51.424;6.762;2023-08-01T09:20:20;7.27;;;5.23;;
9007;SDS011;62813;51.424;6.762;2023-08-01T09:22:47;11.07;;;5.17;;
9007;SDS011;62813;51.424;6.762;2023-08-01T09:25:14;8.03;;;4.70;;
9007;SDS011;62813;51.424;6.762;2023-08-01T09:27:41;6.67;;;4.10;;
9007;SDS011;62813;51.424;6.762;2023-08-01T09:30:08;8.10;;;4.40;;
9007;SDS011;62813;51.424;6.762;2023-08-01T09:32:37;7.07;;;4.70;;
9007;SDS011;62813;51.424;6.762;2023-08-01T09:35:05;6.60;;;4.40;;
9007;SDS011;62813;51.424;6.762;2023-08-01T09:37:41;5.67;;;4.27;;
9007;SDS011;62813;51.424;6.762;2023-08-01T09:40:09;9.23;;;4.23;;
9007;SDS011;62813;51.424;6.762;2023-08-01T09:45:15;8.00;;;5.67;;
9007;SDS011;62813;51.424;6.762;2023-08-01T09:47:44;6.90;;;4.30;;
9007;SDS011;62813;51.424;6.762;2023-08-01T09:50:22;6.57;;;4.43;;
9007;SDS011;62813;51.424;6.762;2023-08-01T09:52:49;10.30;;;5.90;;
9007;SDS011;62813;51.424;6.762;2023-08-01T09:55:26;8.80;;;4.50;;
9007;SDS011;62813;51.424;6.762;2023-08-01T09:57:58;8.10;;;4.50;;
9007;SDS011;62813;51.424;6.762;2023-08-01T10:00:26;8.87;;;4.13;;
9007;SDS011;62813;51.424;6.762;2023-08-01T10:02:55;8.57;;;3.97;;
9007;SDS011;62813;51.424;6.762;2023-08-01T10:05:24;6.47;;;3.60;;
9007;SDS011;62813;51.424;6.762;2023-08-01T10:07:51;5.50;;;3.70;;
9007;SDS011;62813;51.424;6.762;2023-08-01T10:10:22;5.53;;;3.73;;
9007;SDS011;62813;51.424;6.762;2023-08-01T10:12:49;8.37;;;3.57;;
9007;SDS011;62813;51.424;6.762;2023-08-01T10:15:17;6.43;;;4.00;;
9007;SDS011;62813;51.424;6.762;2023-08-01T10:17:44;6.87;;;4.53;;
9007;SDS011;62813;51.424;6.762;2023-08-01T10:20:11;9.00;;;4.90;;
9007;SDS011;62813;51.424;6.762;2023-08-01T10:22:40;8.93;;;4.60;;
9007;SDS011;62813;51.424;6.762;2023-08-01T10:25:08;6.77;;;3.67;;
9007;SDS011;62813;51.424;6.762;2023-08-01T10:27:37;5.67;;;3.80;;
9007;SDS011;62813;51.424;6.762;2023-08-01T10:30:04;6.83;;;3.90;;
9007;SDS011;62813;51.424;6.762;2023-08-01T10:32:34;5.50;;;3.63;;
9007;SDS011;62813;51.424;6.762;2023-08-01T10:35:02;6.43;;;3.80;;
9007;SDS011;62813;51.424;6.762;2023-08-01T10:40:08;8.20;;;4.40;;
9007;SDS011;62813;51.424;6.762;2023-08-01T10:42:42;11.77;;;4.57;;
9007;SDS011;62813;51.424;6.762;2023-08-01T10:45:20;6.93;;;4.30;;
9007;SDS011;62813;51.424;6.762;2023-08-01T10:47:48;5.73;;;4.03;;
9007;SDS011;62813;51.424;6.762;2023-08-01T10:50:18;9.93;;;4.50;;
9007;SDS011;62813;51.424;6.762;2023-08-01T10:52:45;7.23;;;4.30;;
9007;SDS011;62813;51.424;6.762;2023-08-01T10:57:50;6.57;;;4.73;;
9007;SDS011;62813;51.424;6.762;2023-08-01T11:00:17;8.10;;;4.80;;
9007;SDS011;62813;51.424;6.762;2023-08-01T11:02:50;7.80;;;5.07;;
9007;SDS011;62813;51.424;6.762;2023-08-01T11:05:20;7.03;;;4.47;;
9007;SDS011;62813;51.424;6.762;2023-08-01T11:07:53;6.20;;;3.67;;
9007;SDS011;62813;51.424;6.762;2023-08-01T11:10:23;5.63;;;3.07;;
9007;SDS011;62813;51.424;6.762;2023-08-01T11:12:51;5.57;;;3.03;;
9007;SDS011;62813;51.424;6.762;2023-08-01T11:15:19;4.07;;;2.40;;
9007;SDS011;62813;51.424;6.762;2023-08-01T11:17:47;4.43;;;2.30;;
9007;SDS011;62813;51.424;6.762;2023-08-01T11:20:21;5.17;;;2.50;;
9007;SDS011;62813;51.424;6.762;2023-08-01T11:25:19;6.37;;;2.73;;
9007;SDS011;62813;51.424;6.762;2023-08-01T11:27:46;5.87;;;2.90;;
9007;SDS011;62813;51.424;6.762;2023-08-01T11:30:13;6.67;;;3.20;;
9007;SDS011;62813;51.424;6.762;2023-08-01T11:32:40;3.70;;;3.00;;
9007;SDS011;62813;51.424;6.762;2023-08-01T11:35:06;6.27;;;3.80;;
9007;SDS011;62813;51.424;6.762;2023-08-01T11:37:34;7.60;;;3.30;;
9007;SDS011;62813;51.424;6.762;2023-08-01T11:40:01;8.47;;;3.90;;
9007;SDS011;62813;51.424;6.762;2023-08-01T11:42:32;7.63;;;3.30;;
9007;SDS011;62813;51.424;6.762;2023-08-01T11:45:09;5.27;;;2.83;;
9007;SDS011;62813;51.424;6.762;2023-08-01T11:47:38;5.10;;;3.40;;
9007;SDS011;62813;51.424;6.762;2023-08-01T11:50:11;9.60;;;3.37;;
9007;SDS011;62813;51.424;6.762;2023-08-01T11:52:38;4.23;;;2.73;;
9007;SDS011;62813;51.424;6.762;2023-08-01T11:55:05;6.20;;;3.03;;
9007;SDS011;62813;51.424;6.762;2023-08-01T11:57:32;5.60;;;3.10;;
9007;SDS011;62813;51.424;6.762;2023-08-01T11:59:58;4.03;;;2.63;;
9007;SDS011;62813;51.424;6.762;2023-08-01T12:02:26;5.57;;;2.80;;
9007;SDS011;62813;51.424;6.762;2023-08-01T12:04:56;5.93;;;3.00;;
9007;SDS011;62813;51.424;6.762;2023-08-01T12:07:25;5.77;;;3.10;;
9007;SDS011;62813;51.424;6.762;2023-08-01T12:12:23;7.67;;;4.00;;
9007;SDS011;62813;51.424;6.762;2023-08-01T12:14:52;7.30;;;3.67;;
9007;SDS011;62813;51.424;6.762;2023-08-01T12:17:20;5.77;;;3.47;;
9007;SDS011;62813;51.424;6.762;2023-08-01T12:19:47;7.10;;;3.93;;
9007;SDS011;62813;51.424;6.762;2023-08-01T12:22:13;5.83;;;4.10;;
9007;SDS011;62813;51.424;6.762;2023-08-01T12:24:41;8.63;;;3.90;;
9007;SDS011;62813;51.424;6.762;2023-08-01T12:27:08;5.10;;;3.23;;
9007;SDS011;62813;51.424;6.762;2023-08-01T12:29:35;7.57;;;4.03;;
9007;SDS011;62813;51.424;6.762;2023-08-01T12:32:02;8.03;;;4.07;;
9007;SDS011;62813;51.424;6.762;2023-08-01T12:34:30;5.80;;;3.80;;
9007;SDS011;62813;51.424;6.762;2023-08-01T12:36:57;7.63;;;3.57;;
9007;SDS011;62813;51.424;6.762;2023-08-01T12:39:23;6.57;;;3.30;;
9007;SDS011;62813;51.424;6.762;2023-08-01T12:41:53;8.07;;;4.07;;
9007;SDS011;62813;51.424;6.762;2023-08-01T12:44:20;4.33;;;3.57;;
9007;SDS011;62813;51.424;6.762;2023-08-01T12:46:49;5.67;;;3.10;;
9007;SDS011;62813;51.424;6.762;2023-08-01T12:49:17;5.20;;;2.70;;
9007;SDS011;62813;51.424;6.762;2023-08-01T12:51:44;5.83;;;2.80;;
9007;SDS011;62813;51.424;6.762;2023-08-01T12:54:15;5.47;;;2.90;;
9007;SDS011;62813;51.424;6.762;2023-08-01T12:56:43;6.03;;;2.57;;
9007;SDS011;62813;51.424;6.762;2023-08-01T12:59:09;6.73;;;2.73;;
9007;SDS011;62813;51.424;6.762;2023-08-01T13:01:36;4.83;;;3.00;;
9007;SDS011;62813;51.424;6.762;2023-08-01T13:04:03;4.60;;;2.50;;
9007;SDS011;62813;51.424;6.762;2023-08-01T13:06:30;4.87;;;2.53;;
9007;SDS011;62813;51.424;6.762;2023-08-01T13:08:57;8.17;;;3.07;;
9007;SDS011;62813;51.424;6.762;2023-08-01T13:11:25;4.57;;;2.30;;
9007;SDS011;62813;51.424;6.762;2023-08-01T13:13:52;5.40;;;2.80;;
9007;SDS011;62813;51.424;6.762;2023-08-01T13:16:18;6.97;;;2.53;;
9007;SDS011;62813;51.424;6.762;2023-08-01T13:18:45;5.90;;;2.27;;
9007;SDS011;62813;51.424;6.762;2023-08-01T13:21:14;7.07;;;2.63;;
9007;SDS011;62813;51.424;6.762;2023-08-01T13:23:41;5.70;;;2.97;;
9007;SDS011;62813;51.424;6.762;2023-08-01T13:26:07;5.00;;;2.60;;
9007;SDS011;62813;51.424;6.762;2023-08-01T13:28:34;5.20;;;2.33;;
9007;SDS011;62813;51.424;6.762;2023-08-01T13:31:01;7.20;;;2.80;;
9007;SDS011;62813;51.424;6.762;2023-08-01T13:33:28;5.00;;;2.53;;
9007;SDS011;62813;51.424;6.762;2023-08-01T13:35:54;10.07;;;3.20;;
9007;SDS011;62813;51.424;6.762;2023-08-01T13:38:21;5.77;;;2.60;;
9007;SDS011;62813;51.424;6.762;2023-08-01T13:40:48;5.73;;;2.70;;
9007;SDS011;62813;51.424;6.762;2023-08-01T13:43:15;6.50;;;2.73;;
9007;SDS011;62813;51.424;6.762;2023-08-01T13:45:42;6.73;;;3.00;;
9007;SDS011;62813;51.424;6.762;2023-08-01T13:48:09;6.50;;;3.13;;
9007;SDS011;62813;51.424;6.762;2023-08-01T13:50:35;5.97;;;2.90;;
9007;SDS011;62813;51.424;6.762;2023-08-01T13:53:02;7.40;;;3.10;;
9007;SDS011;62813;51.424;6.762;2023-08-01T13:55:29;6.97;;;2.80;;
9007;SDS011;62813;51.424;6.762;2023-08-01T13:57:55;4.60;;;2.60;;
9007;SDS011;62813;51.424;6.762;2023-08-01T14:00:22;5.60;;;2.70;;
9007;SDS011;62813;51.424;6.762;2023-08-01T14:02:49;5.53;;;2.77;;
9007;SDS011;62813;51.424;6.762;2023-08-01T14:05:18;7.03;;;2.70;;
9007;SDS011;62813;51.424;6.762;2023-08-01T14:07:44;7.47;;;2.47;;
9007;SDS011;62813;51.424;6.762;2023-08-01T14:10:11;5.30;;;2.33;;
9007;SDS011;62813;51.424;6.762;2023-08-01T14:12:41;4.03;;;2.53;;
9007;SDS011;62813;51.424;6.762;2023-08-01T14:15:07;7.47;;;2.50;;
9007;SDS011;62813;51.424;6.762;2023-08-01T14:17:35;6.70;;;2.53;;
9007;SDS011;62813;51.424;6.762;2023-08-01T14:20:02;7.77;;;2.40;;
9007;SDS011;62813;51.424;6.762;2023-08-01T14:22:32;5.93;;;2.70;;
9007;SDS011;62813;51.424;6.762;2023-08-01T14:24:58;5.40;;;2.37;;
9007;SDS011;62813;51.424;6.762;2023-08-01T14:27:25;6.37;;;2.20;;
9007;SDS011;62813;51.424;6.762;2023-08-01T14:29:52;3.53;;;2.00;;
9007;SDS011;62813;51.424;6.762;2023-08-01T14:32:19;6.77;;;2.13;;
9007;SDS011;62813;51.424;6.762;2023-08-01T14:34:46;4.13;;;2.13;;
9007;SDS011;62813;51.424;6.762;2023-08-01T14:37:13;6.70;;;2.67;;
9007;SDS011;62813;51.424;6.762;2023-08-01T14:39:40;4.80;;;2.23;;
9007;SDS011;62813;51.424;6.762;2023-08-01T14:42:06;4.80;;;2.13;;
9007;SDS011;62813;51.424;6.762;2023-08-01T14:44:33;8.10;;;2.60;;
9007;SDS011;62813;51.424;6.762;2023-08-01T14:47:00;6.30;;;2.33;;
9007;SDS011;62813;51.424;6.762;2023-08-01T14:49:26;6.03;;;2.10;;
9007;SDS011;62813;51.424;6.762;2023-08-01T14:51:56;4.27;;;2.30;;
9007;SDS011;62813;51.424;6.762;2023-08-01T14:54:22;5.40;;;2.10;;
9007;SDS011;62813;51.424;6.762;2023-08-01T14:57:05;5.00;;;2.00;;
9007;SDS011;62813;51.424;6.762;2023-08-01T14:59:32;4.70;;;1.80;;
9007;SDS011;62813;51.424;6.762;2023-08-01T15:01:59;4.30;;;2.03;;
9007;SDS011;62813;51.424;6.762;2023-08-01T15:04:26;4.10;;;1.73;;
9007;SDS011;62813;51.424;6.762;2023-08-01T15:06:53;4.50;;;1.50;;
9007;SDS011;62813;51.424;6.762;2023-08-01T15:09:20;2.87;;;1.67;;